createdAt,value
2018-04-07T00:01:56.974Z,7.60
2018-04-07T00:04:24.728Z,7.60
2018-04-07T00:06:52.340Z,7.50
2018-04-07T00:09:20.430Z,7.50
2018-04-07T00:11:48.472Z,7.60
2018-04-07T00:14:16.912Z,7.60
2018-04-07T00:16:45.703Z,7.60
2018-04-07T00:19:14.345Z,7.60
2018-04-07T00:21:42.376Z,7.60
2018-04-07T00:24:10.093Z,7.60
2018-04-07T00:26:37.724Z,7.60
2018-04-07T00:29:05.477Z,7.60
2018-04-07T00:31:33.315Z,7.60
2018-04-07T00:34:09.931Z,7.60
2018-04-07T00:36:47.814Z,7.60
2018-04-07T00:42:05.436Z,7.60
2018-04-07T00:44:35.046Z,7.50
2018-04-07T00:47:02.734Z,7.60
2018-04-07T00:49:42.736Z,7.50
2018-04-07T00:52:17.821Z,7.60
2018-04-07T00:57:35.106Z,7.70
2018-04-07T01:00:16.883Z,7.80
2018-04-07T01:02:47.789Z,7.80
2018-04-07T01:05:21.041Z,7.80
2018-04-07T01:07:50.451Z,7.80
2018-04-07T01:10:21.355Z,7.80
2018-04-07T01:12:49.398Z,7.70
2018-04-07T01:15:20.524Z,7.70
2018-04-07T01:17:53.815Z,7.60
2018-04-07T01:20:25.859Z,7.60
2018-04-07T01:22:55.470Z,7.60
2018-04-07T01:25:25.138Z,7.60
2018-04-07T01:27:59.539Z,7.60
2018-04-07T01:30:31.594Z,7.50
2018-04-07T01:33:02.114Z,7.50
2018-04-07T01:35:29.730Z,7.50
2018-04-07T01:38:05.342Z,7.40
2018-04-07T01:40:36.063Z,7.40
2018-04-07T01:43:10.358Z,7.40
2018-04-07T01:45:43.522Z,7.40
2018-04-07T01:48:15.838Z,7.30
2018-04-07T01:50:46.550Z,7.30
2018-04-07T01:53:18.783Z,7.30
2018-04-07T01:56:06.045Z,7.20
2018-04-07T01:58:36.003Z,7.20
2018-04-07T02:01:09.806Z,7.10
2018-04-07T02:03:37.436Z,7.10
2018-04-07T02:06:11.515Z,7.00
2018-04-07T02:08:39.177Z,6.90
2018-04-07T02:11:11.172Z,6.80
2018-04-07T02:13:40.470Z,6.80
2018-04-07T02:16:14.487Z,6.70
2018-04-07T02:18:49.588Z,6.60
2018-04-07T02:21:20.490Z,6.50
2018-04-07T02:23:48.228Z,6.50
2018-04-07T02:26:23.137Z,6.40
2018-04-07T02:28:55.327Z,6.40
2018-04-07T02:31:29.765Z,6.40
2018-04-07T02:34:01.033Z,6.40
2018-04-07T02:36:31.872Z,6.40
2018-04-07T02:39:07.317Z,6.40
2018-04-07T02:41:41.218Z,6.40
2018-04-07T02:44:09.972Z,6.40
2018-04-07T02:46:42.259Z,6.50
2018-04-07T02:49:09.933Z,6.50
2018-04-07T02:51:39.225Z,6.50
2018-04-07T02:56:42.506Z,6.50
2018-04-07T02:59:10.909Z,6.50
2018-04-07T03:01:40.353Z,6.50
2018-04-07T03:04:12.996Z,6.40
2018-04-07T03:06:48.409Z,6.40
2018-04-07T03:09:22.134Z,6.40
2018-04-07T03:11:53.443Z,6.30
2018-04-07T03:14:26.938Z,6.20
2018-04-07T03:16:56.763Z,6.20
2018-04-07T03:19:28.352Z,6.10
2018-04-07T03:22:00.203Z,6.00
2018-04-07T03:24:29.616Z,6.00
2018-04-07T03:27:00.794Z,5.90
2018-04-07T03:29:33.238Z,5.70
2018-04-07T03:32:06.514Z,5.70
2018-04-07T03:35:00.554Z,5.60
2018-04-07T03:37:32.390Z,5.40
2018-04-07T03:40:01.264Z,5.40
2018-04-07T03:45:24.712Z,5.40
2018-04-07T03:47:56.177Z,5.40
2018-04-07T03:50:27.756Z,5.40
2018-04-07T03:53:00.812Z,5.40
2018-04-07T03:55:28.767Z,5.40
2018-04-07T03:57:57.557Z,5.40
2018-04-07T04:00:29.883Z,5.40
2018-04-07T04:03:01.548Z,5.50
2018-04-07T04:05:32.328Z,5.60
2018-04-07T04:08:01.419Z,5.60
2018-04-07T04:10:29.112Z,5.70
2018-04-07T04:12:57.899Z,5.70
2018-04-07T04:15:30.642Z,5.70
2018-04-07T04:17:59.201Z,5.70
2018-04-07T04:20:29.626Z,5.70
2018-04-07T04:22:57.580Z,5.70
2018-04-07T04:25:25.186Z,5.70
2018-04-07T04:27:52.750Z,5.70
2018-04-07T04:30:21.132Z,5.80
2018-04-07T04:32:49.654Z,5.80
2018-04-07T04:35:17.240Z,5.80
2018-04-07T04:37:45.200Z,5.60
2018-04-07T04:40:13.519Z,5.60
2018-04-07T04:42:41.915Z,5.60
2018-04-07T04:45:09.507Z,5.50
2018-04-07T04:47:37.142Z,5.50
2018-04-07T04:50:04.714Z,5.50
2018-04-07T04:52:32.248Z,5.50
2018-04-07T04:54:59.897Z,5.50
2018-04-07T04:57:27.866Z,5.60
2018-04-07T04:59:55.481Z,5.60
2018-04-07T05:02:23.012Z,5.60
2018-04-07T05:04:50.544Z,5.60
2018-04-07T05:07:18.162Z,5.60
2018-04-07T05:09:47.375Z,5.60
2018-04-07T05:12:15.346Z,5.40
2018-04-07T05:14:43.302Z,5.30
2018-04-07T05:17:10.837Z,5.30
2018-04-07T05:19:38.387Z,5.20
2018-04-07T05:22:05.946Z,5.20
2018-04-07T05:24:33.529Z,5.20
2018-04-07T05:27:01.071Z,5.30
2018-04-07T05:29:28.629Z,5.40
2018-04-07T05:31:56.842Z,5.50
2018-04-07T05:34:24.794Z,5.70
2018-04-07T05:36:52.395Z,5.70
2018-04-07T05:39:19.972Z,5.80
2018-04-07T05:41:47.555Z,5.80
2018-04-07T05:44:15.229Z,5.80
2018-04-07T05:46:42.788Z,5.90
2018-04-07T05:49:10.380Z,6.00
2018-04-07T05:51:38.681Z,6.10
2018-04-07T05:54:06.233Z,6.10
2018-04-07T05:56:33.822Z,6.10
2018-04-07T05:59:01.401Z,6.20
2018-04-07T06:01:29.073Z,6.30
2018-04-07T06:03:56.732Z,6.30
2018-04-07T06:06:24.361Z,6.40
2018-04-07T06:08:51.930Z,6.40
2018-04-07T06:11:19.466Z,6.50
2018-04-07T06:13:47.074Z,6.60
2018-04-07T06:16:15.586Z,6.70
2018-04-07T06:18:43.134Z,6.80
2018-04-07T06:21:11.086Z,7.10
2018-04-07T06:23:38.641Z,7.10
2018-04-07T06:26:06.232Z,7.30
2018-04-07T06:28:34.738Z,7.50
2018-04-07T06:31:03.250Z,7.70
2018-04-07T06:33:31.374Z,7.90
2018-04-07T06:35:59.393Z,8.30
2018-04-07T06:38:26.956Z,8.20
2018-04-07T06:40:54.892Z,8.40
2018-04-07T06:43:22.459Z,8.50
2018-04-07T06:45:50.015Z,8.60
2018-04-07T06:48:17.785Z,8.70
2018-04-07T06:50:45.602Z,8.80
2018-04-07T06:53:13.146Z,8.80
2018-04-07T06:55:41.182Z,8.90
2018-04-07T06:58:08.743Z,9.00
2018-04-07T07:00:36.520Z,9.10
2018-04-07T07:03:06.614Z,9.10
2018-04-07T07:05:34.154Z,9.10
2018-04-07T07:08:01.853Z,9.20
2018-04-07T07:10:29.458Z,9.20
2018-04-07T07:12:57.809Z,9.30
2018-04-07T07:15:25.380Z,9.40
2018-04-07T07:17:52.924Z,9.50
2018-04-07T07:20:20.486Z,9.60
2018-04-07T07:22:48.075Z,9.60
2018-04-07T07:25:16.567Z,9.70
2018-04-07T07:27:44.511Z,9.80
2018-04-07T07:30:12.060Z,9.80
2018-04-07T07:32:39.677Z,9.90
2018-04-07T07:35:07.796Z,10.10
2018-04-07T07:37:35.350Z,10.20
2018-04-07T07:40:03.482Z,10.30
2018-04-07T07:42:31.021Z,10.40
2018-04-07T07:44:58.976Z,10.60
2018-04-07T07:47:26.988Z,10.70
2018-04-07T07:49:54.577Z,10.70
2018-04-07T07:52:23.078Z,10.80
2018-04-07T07:54:50.642Z,10.90
2018-04-07T07:57:18.612Z,11.10
2018-04-07T07:59:46.591Z,11.20
2018-04-07T08:02:14.529Z,11.30
2018-04-07T08:04:42.079Z,11.30
2018-04-07T08:07:09.614Z,11.40
2018-04-07T08:09:37.950Z,11.40
2018-04-07T08:12:06.493Z,11.60
2018-04-07T08:14:34.067Z,11.60
2018-04-07T08:17:01.644Z,11.70
2018-04-07T08:19:29.281Z,11.80
2018-04-07T08:21:58.031Z,11.90
2018-04-07T08:24:25.566Z,12.10
2018-04-07T08:26:53.510Z,12.30
2018-04-07T08:29:21.090Z,12.40
2018-04-07T08:31:48.717Z,12.50
2018-04-07T08:34:16.721Z,12.50
2018-04-07T08:36:44.702Z,12.80
2018-04-07T08:39:12.272Z,12.80
2018-04-07T08:41:39.848Z,12.80
2018-04-07T08:44:07.416Z,12.90
2018-04-07T08:46:34.956Z,13.00
2018-04-07T08:49:02.581Z,13.10
2018-04-07T08:51:30.143Z,13.20
2018-04-07T08:53:58.605Z,13.30
2018-04-07T08:56:26.817Z,13.40
2018-04-07T08:58:54.798Z,13.70
2018-04-07T09:01:22.426Z,13.70
2018-04-07T09:03:49.975Z,13.90
2018-04-07T09:06:17.584Z,14.00
2018-04-07T09:08:46.065Z,14.10
2018-04-07T09:11:13.636Z,14.20
2018-04-07T09:13:41.792Z,14.30
2018-04-07T09:16:09.753Z,14.40
2018-04-07T09:18:37.926Z,14.50
2018-04-07T09:21:05.863Z,14.60
2018-04-07T09:23:33.429Z,14.60
2018-04-07T09:26:01.072Z,14.70
2018-04-07T09:28:28.646Z,14.90
2018-04-07T09:31:01.847Z,15.00
2018-04-07T09:33:29.406Z,15.20
2018-04-07T09:35:57.362Z,15.30
2018-04-07T09:38:24.915Z,15.40
2018-04-07T09:40:52.477Z,15.50
2018-04-07T09:43:21.394Z,15.60
2018-04-07T09:45:48.948Z,15.70
2018-04-07T09:48:17.007Z,16.10
2018-04-07T09:50:44.897Z,16.20
2018-04-07T09:53:13.009Z,16.30
2018-04-07T09:55:40.574Z,16.30
2018-04-07T09:58:09.159Z,16.40
2018-04-07T10:00:36.877Z,16.50
2018-04-07T10:03:04.954Z,16.90
2018-04-07T10:05:33.625Z,17.00
2018-04-07T10:08:01.214Z,17.00
2018-04-07T10:10:29.279Z,17.10
2018-04-07T10:12:57.294Z,17.40
2018-04-07T10:15:25.476Z,17.40
2018-04-07T10:17:53.037Z,17.50
2018-04-07T10:20:21.602Z,17.70
2018-04-07T10:22:50.175Z,17.70
2018-04-07T10:25:17.729Z,17.90
2018-04-07T10:27:45.292Z,18.00
2018-04-07T10:30:12.901Z,18.20
2018-04-07T10:32:40.444Z,18.30
2018-04-07T10:35:08.009Z,18.40
2018-04-07T10:37:35.561Z,18.50
2018-04-07T10:40:04.957Z,18.50
2018-04-07T10:42:32.490Z,18.60
2018-04-07T10:45:00.053Z,18.70
2018-04-07T10:47:27.638Z,18.90
2018-04-07T10:49:55.207Z,19.00
2018-04-07T10:52:22.757Z,19.10
2018-04-07T10:54:50.320Z,19.30
2018-04-07T10:57:17.962Z,19.40
2018-04-07T10:59:47.213Z,19.50
2018-04-07T11:02:14.777Z,19.70
2018-04-07T11:04:42.833Z,19.90
2018-04-07T11:07:10.485Z,20.20
2018-04-07T11:09:38.038Z,20.40
2018-04-07T11:12:05.628Z,20.60
2018-04-07T11:14:33.574Z,20.90
2018-04-07T11:17:01.743Z,20.90
2018-04-07T11:19:29.311Z,20.90
2018-04-07T11:21:57.017Z,21.20
2018-04-07T11:24:24.705Z,21.30
2018-04-07T11:26:52.237Z,21.40
2018-04-07T11:29:19.836Z,21.50
2018-04-07T11:31:47.666Z,21.60
2018-04-07T11:34:15.232Z,21.70
2018-04-07T11:36:42.803Z,21.90
2018-04-07T11:39:10.352Z,22.20
2018-04-07T11:41:38.458Z,22.70
2018-04-07T11:44:06.073Z,24.60
2018-04-07T11:46:34.018Z,29.50
2018-04-07T11:49:02.002Z,31.40
2018-04-07T11:51:30.020Z,32.90
2018-04-07T11:53:57.562Z,32.90
2018-04-07T11:56:25.125Z,33.80
2018-04-07T11:58:52.856Z,34.30
2018-04-07T12:01:20.820Z,35.80
2018-04-07T12:03:48.860Z,35.80
2018-04-07T12:06:16.551Z,36.30
2018-04-07T12:08:44.513Z,37.50
2018-04-07T12:11:12.559Z,37.60
2018-04-07T12:13:40.116Z,37.60
2018-04-07T12:16:07.687Z,37.00
2018-04-07T12:18:35.228Z,37.20
2018-04-07T12:21:02.786Z,37.80
2018-04-07T12:23:30.375Z,38.40
2018-04-07T12:25:58.337Z,39.10
2018-04-07T12:28:25.985Z,39.10
2018-04-07T12:30:53.538Z,39.20
2018-04-07T12:35:55.295Z,39.40
2018-04-07T12:38:22.848Z,39.20
2018-04-07T12:40:51.106Z,38.80
2018-04-07T12:43:18.656Z,39.10
2018-04-07T12:45:46.235Z,40.00
2018-04-07T12:48:13.803Z,40.10
2018-04-07T12:50:41.365Z,40.30
2018-04-07T12:53:09.905Z,40.60
2018-04-07T12:55:38.422Z,41.00
2018-04-07T12:58:06.027Z,41.50
2018-04-07T13:00:33.587Z,41.60
2018-04-07T13:03:01.113Z,41.80
2018-04-07T13:05:28.683Z,42.10
2018-04-07T13:07:56.737Z,42.10
2018-04-07T13:10:24.322Z,42.00
2018-04-07T13:12:51.883Z,41.90
2018-04-07T13:15:19.447Z,41.20
2018-04-07T13:17:47.027Z,40.00
2018-04-07T13:20:14.580Z,39.60
2018-04-07T13:22:42.157Z,39.90
2018-04-07T13:25:10.153Z,40.10
2018-04-07T13:27:37.706Z,40.10
2018-04-07T13:30:05.294Z,39.70
2018-04-07T13:32:32.894Z,38.30
2018-04-07T13:35:00.449Z,37.20
2018-04-07T13:37:28.869Z,36.80
2018-04-07T13:39:56.445Z,36.90
2018-04-07T13:42:23.993Z,37.10
2018-04-07T13:44:51.594Z,38.10
2018-04-07T13:47:19.147Z,38.70
2018-04-07T13:49:46.697Z,38.30
2018-04-07T13:52:14.259Z,37.00
2018-04-07T13:54:41.848Z,36.40
2018-04-07T13:57:09.591Z,35.60
2018-04-07T13:59:37.140Z,34.80
2018-04-07T14:02:04.733Z,34.90
2018-04-07T14:04:32.303Z,34.30
2018-04-07T14:07:00.264Z,36.30
2018-04-07T14:09:28.194Z,37.30
2018-04-07T14:11:55.765Z,37.30
2018-04-07T14:14:23.300Z,37.40
2018-04-07T14:16:50.908Z,36.70
2018-04-07T14:19:18.512Z,36.80
2018-04-07T14:21:46.207Z,37.60
2018-04-07T14:24:13.841Z,38.60
2018-04-07T14:26:41.406Z,39.40
2018-04-07T14:29:08.963Z,39.00
2018-04-07T14:31:36.865Z,38.40
2018-04-07T14:34:04.403Z,37.10
2018-04-07T14:36:31.989Z,35.70
2018-04-07T14:39:00.849Z,34.30
2018-04-07T14:41:28.861Z,33.10
2018-04-07T14:43:56.808Z,34.00
2018-04-07T14:46:24.386Z,34.00
2018-04-07T14:48:51.965Z,34.00
2018-04-07T14:51:19.917Z,34.50
2018-04-07T14:53:47.464Z,34.50
2018-04-07T14:56:16.660Z,36.10
2018-04-07T14:58:44.342Z,37.50
2018-04-07T15:01:12.299Z,37.30
2018-04-07T15:03:39.991Z,37.30
2018-04-07T15:06:07.938Z,34.60
2018-04-07T15:08:35.480Z,34.60
2018-04-07T15:11:03.038Z,35.10
2018-04-07T15:13:30.639Z,36.30
2018-04-07T15:15:58.597Z,37.30
2018-04-07T15:18:26.572Z,36.50
2018-04-07T15:20:54.558Z,36.30
2018-04-07T15:23:22.116Z,36.30
2018-04-07T15:25:49.663Z,37.10
2018-04-07T15:28:17.622Z,38.70
2018-04-07T15:30:45.475Z,38.70
2018-04-07T15:33:13.155Z,39.00
2018-04-07T15:35:41.144Z,38.60
2018-04-07T15:38:08.687Z,38.50
2018-04-07T15:40:37.176Z,35.50
2018-04-07T15:43:05.119Z,36.20
2018-04-07T15:45:32.693Z,36.20
2018-04-07T15:48:00.272Z,36.70
2018-04-07T15:50:27.834Z,36.50
2018-04-07T15:52:55.405Z,35.30
2018-04-07T15:55:22.987Z,34.10
2018-04-07T15:57:50.526Z,34.10
2018-04-07T16:00:18.153Z,34.90
2018-04-07T16:02:45.964Z,35.00
2018-04-07T16:05:13.583Z,35.20
2018-04-07T16:07:41.654Z,36.00
2018-04-07T16:10:09.630Z,36.20
2018-04-07T16:12:37.558Z,35.90
2018-04-07T16:15:05.133Z,35.90
2018-04-07T16:17:32.682Z,35.50
2018-04-07T16:20:00.900Z,35.50
2018-04-07T16:22:28.517Z,35.40
2018-04-07T16:24:56.036Z,35.20
2018-04-07T16:27:23.663Z,34.70
2018-04-07T16:29:51.615Z,34.70
2018-04-07T16:32:19.169Z,34.70
2018-04-07T16:34:46.721Z,34.20
2018-04-07T16:37:14.286Z,33.60
2018-04-07T16:39:41.831Z,33.30
2018-04-07T16:42:09.386Z,33.80
2018-04-07T16:44:36.951Z,34.50
2018-04-07T16:47:04.783Z,35.20
2018-04-07T16:49:32.334Z,35.90
2018-04-07T16:52:00.675Z,36.30
2018-04-07T16:54:28.568Z,36.00
2018-04-07T16:56:56.178Z,35.60
2018-04-07T16:59:23.813Z,34.90
2018-04-07T17:01:51.366Z,34.50
2018-04-07T17:04:19.323Z,34.40
2018-04-07T17:06:46.893Z,34.10
2018-04-07T17:09:14.483Z,33.40
2018-04-07T17:11:42.058Z,32.40
2018-04-07T17:14:09.850Z,31.30
2018-04-07T17:16:38.052Z,30.10
2018-04-07T17:19:05.974Z,28.60
2018-04-07T17:21:33.618Z,28.60
2018-04-07T17:24:01.339Z,28.30
2018-04-07T17:26:28.942Z,27.60
2018-04-07T17:28:56.513Z,26.50
2018-04-07T17:31:24.795Z,25.30
2018-04-07T17:33:52.347Z,24.40
2018-04-07T17:36:19.920Z,23.70
2018-04-07T17:38:47.481Z,23.00
2018-04-07T17:41:15.039Z,22.50
2018-04-07T17:43:42.656Z,22.00
2018-04-07T17:46:10.441Z,21.60
2018-04-07T17:48:38.057Z,21.30
2018-04-07T17:51:05.611Z,21.00
2018-04-07T17:53:33.566Z,20.60
2018-04-07T17:56:01.532Z,20.40
2018-04-07T17:58:29.612Z,20.20
2018-04-07T18:00:57.240Z,20.20
2018-04-07T18:03:24.845Z,20.00
2018-04-07T18:05:52.834Z,19.60
2018-04-07T18:08:20.721Z,19.60
2018-04-07T18:10:49.305Z,19.40
2018-04-07T18:13:17.327Z,19.00
2018-04-07T18:15:45.386Z,18.80
2018-04-07T18:18:13.275Z,18.70
2018-04-07T18:20:41.253Z,18.50
2018-04-07T18:23:08.806Z,18.50
2018-04-07T18:25:36.770Z,18.30
2018-04-07T18:28:05.678Z,18.20
2018-04-07T18:30:33.288Z,18.20
2018-04-07T18:33:01.321Z,18.10
2018-04-07T18:35:29.257Z,17.90
2018-04-07T18:37:56.980Z,17.80
2018-04-07T18:40:24.613Z,17.70
2018-04-07T18:42:53.226Z,17.70
2018-04-07T18:45:21.075Z,17.50
2018-04-07T18:47:49.021Z,17.40
2018-04-07T19:08:03.090Z,17.20
2018-04-07T19:10:30.634Z,17.20
2018-04-07T19:12:58.232Z,17.10
2018-04-07T19:15:25.838Z,17.00
2018-04-07T19:17:54.767Z,16.80
2018-04-07T19:20:22.335Z,16.90
2018-04-07T19:22:49.904Z,16.70
2018-04-07T19:25:17.471Z,16.70
2018-04-07T19:27:45.092Z,16.60
2018-04-07T19:30:12.645Z,16.60
2018-04-07T19:32:40.711Z,16.50
2018-04-07T19:35:08.655Z,16.30
2018-04-07T19:37:36.908Z,16.30
2018-04-07T19:40:04.516Z,16.30
2018-04-07T19:42:32.525Z,16.20
2018-04-07T19:45:00.154Z,16.20
2018-04-07T19:47:28.144Z,16.10
2018-04-07T19:49:55.722Z,16.10
2018-04-07T19:52:23.251Z,16.00
2018-04-07T19:54:50.863Z,16.00
2018-04-07T19:57:18.418Z,15.90
2018-04-07T19:59:46.004Z,15.90
2018-04-07T20:02:13.985Z,15.80
2018-04-07T20:04:41.586Z,15.80
2018-04-07T20:07:09.151Z,15.80
2018-04-07T20:09:36.713Z,15.70
2018-04-07T20:12:05.105Z,15.70
2018-04-07T20:14:32.740Z,15.70
2018-04-07T20:17:00.493Z,15.60
2018-04-07T20:19:28.901Z,15.60
2018-04-07T20:21:56.556Z,15.50
2018-04-07T20:24:24.274Z,15.50
2018-04-07T20:26:52.042Z,15.50
2018-04-07T20:29:19.668Z,15.40
2018-04-07T20:31:47.412Z,15.40
2018-04-07T20:34:15.364Z,15.30
2018-04-07T20:36:44.445Z,15.20
2018-04-07T20:42:23.954Z,15.20
2018-04-07T20:48:10.659Z,15.10
2018-04-07T20:50:43.796Z,15.00
2018-04-07T20:53:23.034Z,15.00
2018-04-07T20:55:55.572Z,14.90
2018-04-07T20:58:32.688Z,14.90
2018-04-07T21:01:01.522Z,14.70
2018-04-07T21:09:09.621Z,14.60
2018-04-07T21:19:48.961Z,14.50
2018-04-07T21:22:44.709Z,14.40
2018-04-07T21:25:28.892Z,14.40
2018-04-07T21:28:00.063Z,14.30
2018-04-07T21:33:34.003Z,14.20
2018-04-07T21:38:37.361Z,14.10
2018-04-07T21:41:08.682Z,14.00
2018-04-07T21:46:39.714Z,13.80
2018-04-07T21:52:22.512Z,13.70
2018-04-07T21:57:40.520Z,13.60
2018-04-07T22:00:17.065Z,13.60
2018-04-07T22:35:37.335Z,12.90
2018-04-07T22:38:12.500Z,12.80
2018-04-07T22:40:49.334Z,12.80
2018-04-07T22:43:33.247Z,12.80
2018-04-07T22:49:12.785Z,12.70
2018-04-07T22:52:05.085Z,12.70
2018-04-07T22:54:33.953Z,12.70
2018-04-07T22:57:05.147Z,12.70
2018-04-07T22:59:33.139Z,12.50
2018-04-07T23:02:01.213Z,12.50
2018-04-07T23:04:28.906Z,12.50
2018-04-07T23:06:56.505Z,12.40
2018-04-07T23:09:24.182Z,12.30
2018-04-07T23:11:52.219Z,12.20
2018-04-07T23:14:19.814Z,12.20
2018-04-07T23:16:47.519Z,12.20
2018-04-07T23:19:15.412Z,12.20
2018-04-07T23:21:43.400Z,12.20
2018-04-07T23:24:11.694Z,12.20
2018-04-07T23:26:39.893Z,12.20
2018-04-07T23:29:07.673Z,12.20
2018-04-07T23:31:35.798Z,12.10
2018-04-07T23:34:03.530Z,12.10
2018-04-07T23:36:31.181Z,12.10
2018-04-07T23:38:58.795Z,12.10
2018-04-07T23:41:26.890Z,12.00
2018-04-07T23:43:54.595Z,12.00
2018-04-07T23:46:22.398Z,12.00
2018-04-07T23:48:50.540Z,11.80
2018-04-07T23:51:18.120Z,11.80
2018-04-07T23:53:46.233Z,11.50
2018-04-07T23:56:14.373Z,11.50
2018-04-07T23:58:42.148Z,11.50
